MSR681 HECA-OEDF
Flight info
| Callsign | MSR681 |
|---|---|
| Flight time | 2h 10m |
| Altitude | 41000 |
| Route | CVO DCT MENLI N697 SISIK W976 TAKSU L550 KARIK B411 DEESA Y415 TAMRO N318 DEBOL N685 NADEN |
| Aircraft | A359/H-SDE2E3GHIJ3J4J5LM1ORWXY/LB1D1 |
Departure
| Time | 2026-04-17 12:19 |
|---|---|
| Airport | Cairo International Airport (HECA) |
Arrival
| Time | 2026-04-17 14:29 |
|---|---|
| Airport | King Fahd International Airport (OEDF) |
| Time | Latitude | Longitude | Altitude | Speed | Heading |
|---|---|---|---|---|---|
| 2026-04-17 11:47 | 30.10856 | 31.39849 | 380 ft | 0 kts | 75° |
| 2026-04-17 12:02 | 30.10855 | 31.39845 | 380 ft | 2 kts | 74° |
| 2026-04-17 12:03 | 30.10850 | 31.39826 | 380 ft | 2 kts | 74° |
| 2026-04-17 12:03 | 30.10846 | 31.39808 | 380 ft | 2 kts | 74° |
| 2026-04-17 12:03 | 30.10843 | 31.39789 | 380 ft | 2 kts | 106° |
| 2026-04-17 12:03 | 30.10850 | 31.39772 | 380 ft | 2 kts | 133° |
| 2026-04-17 12:04 | 30.10855 | 31.39767 | 380 ft | 3 kts | 141° |
| 2026-04-17 12:04 | 30.10867 | 31.39758 | 380 ft | 1 kts | 158° |
| 2026-04-17 12:04 | 30.10871 | 31.39756 | 380 ft | 0 kts | 161° |
| 2026-04-17 12:04 | 30.10874 | 31.39755 | 380 ft | 0 kts | 163° |
| 2026-04-17 12:07 | 30.10839 | 31.39766 | 380 ft | 12 kts | 165° |
| 2026-04-17 12:07 | 30.10723 | 31.39802 | 380 ft | 22 kts | 165° |
| 2026-04-17 12:08 | 30.10547 | 31.39854 | 380 ft | 27 kts | 162° |
| 2026-04-17 12:08 | 30.10528 | 31.40015 | 380 ft | 25 kts | 53° |
| 2026-04-17 12:08 | 30.10644 | 31.40174 | 380 ft | 27 kts | 47° |
| 2026-04-17 12:08 | 30.10709 | 31.40292 | 380 ft | 6 kts | 99° |
| 2026-04-17 12:09 | 30.10690 | 31.40330 | 380 ft | 6 kts | 109° |
| 2026-04-17 12:09 | 30.10695 | 31.40389 | 381 ft | 9 kts | 67° |
| 2026-04-17 12:09 | 30.10739 | 31.40452 | 381 ft | 12 kts | 52° |
| 2026-04-17 12:09 | 30.10798 | 31.40537 | 380 ft | 16 kts | 51° |
| 2026-04-17 12:10 | 30.10877 | 31.40647 | 381 ft | 19 kts | 45° |
| 2026-04-17 12:10 | 30.10977 | 31.40770 | 381 ft | 23 kts | 47° |
| 2026-04-17 12:10 | 30.11091 | 31.40921 | 381 ft | 27 kts | 50° |
| 2026-04-17 12:10 | 30.11221 | 31.41095 | 381 ft | 30 kts | 49° |
| 2026-04-17 12:11 | 30.11365 | 31.41287 | 381 ft | 33 kts | 49° |
| 2026-04-17 12:11 | 30.11492 | 31.41456 | 381 ft | 29 kts | 49° |
| 2026-04-17 12:11 | 30.11585 | 31.41581 | 381 ft | 32 kts | 49° |
| 2026-04-17 12:12 | 30.11919 | 31.42024 | 381 ft | 25 kts | 49° |
| 2026-04-17 12:12 | 30.12041 | 31.42185 | 381 ft | 28 kts | 49° |
| 2026-04-17 12:12 | 30.12177 | 31.42369 | 381 ft | 32 kts | 50° |
| 2026-04-17 12:12 | 30.12323 | 31.42562 | 380 ft | 29 kts | 47° |
| 2026-04-17 12:13 | 30.12426 | 31.42698 | 380 ft | 20 kts | 49° |
| 2026-04-17 12:13 | 30.12474 | 31.42794 | 381 ft | 22 kts | 76° |
| 2026-04-17 12:13 | 30.12452 | 31.42888 | 381 ft | 0 kts | 132° |
| 2026-04-17 12:17 | 30.12444 | 31.42897 | 381 ft | 5 kts | 135° |
| 2026-04-17 12:17 | 30.12398 | 31.42925 | 381 ft | 10 kts | 165° |
| 2026-04-17 12:17 | 30.12311 | 31.42918 | 376 ft | 12 kts | 192° |
| 2026-04-17 12:17 | 30.12274 | 31.42887 | 375 ft | 0 kts | 229° |
| 2026-04-17 12:18 | 30.12270 | 31.42881 | 375 ft | 7 kts | 229° |
| 2026-04-17 12:18 | 30.12157 | 31.42735 | 377 ft | 50 kts | 228° |
| 2026-04-17 12:18 | 30.11771 | 31.42225 | 377 ft | 116 kts | 229° |
| 2026-04-17 12:19 | 30.10901 | 31.41046 | 826 ft | 151 kts | 229° |
| 2026-04-17 12:19 | 30.10474 | 31.40439 | 1433 ft | 148 kts | 230° |
| 2026-04-17 12:19 | 30.09782 | 31.39512 | 2110 ft | 155 kts | 223° |
| 2026-04-17 12:19 | 30.08458 | 31.38936 | 2934 ft | 163 kts | 179° |
| 2026-04-17 12:20 | 30.07725 | 31.39177 | 3257 ft | 168 kts | 165° |
| 2026-04-17 12:20 | 30.06656 | 31.39821 | 3579 ft | 184 kts | 151° |
| 2026-04-17 12:20 | 30.05620 | 31.40841 | 3822 ft | 207 kts | 141° |
| 2026-04-17 12:20 | 30.04626 | 31.42162 | 4018 ft | 231 kts | 133° |
| 2026-04-17 12:21 | 30.03655 | 31.43741 | 4255 ft | 252 kts | 129° |
| 2026-04-17 12:21 | 30.02676 | 31.45478 | 4708 ft | 264 kts | 128° |
| 2026-04-17 12:21 | 30.01680 | 31.47306 | 5280 ft | 269 kts | 128° |
| 2026-04-17 12:21 | 30.00675 | 31.49134 | 5939 ft | 271 kts | 130° |
| 2026-04-17 12:22 | 29.99659 | 31.50939 | 6530 ft | 273 kts | 132° |
| 2026-04-17 12:22 | 29.98594 | 31.52775 | 7070 ft | 277 kts | 133° |
| 2026-04-17 12:22 | 29.97509 | 31.54617 | 7681 ft | 278 kts | 134° |
| 2026-04-17 12:22 | 29.96416 | 31.56461 | 8336 ft | 278 kts | 134° |
| 2026-04-17 12:23 | 29.95323 | 31.58301 | 9008 ft | 278 kts | 134° |
| 2026-04-17 12:23 | 29.94228 | 31.60142 | 9664 ft | 279 kts | 135° |
| 2026-04-17 12:23 | 29.93124 | 31.61994 | 10234 ft | 282 kts | 135° |
| 2026-04-17 12:23 | 29.91981 | 31.63897 | 10541 ft | 296 kts | 135° |
| 2026-04-17 12:24 | 29.90792 | 31.65870 | 11012 ft | 300 kts | 135° |
| 2026-04-17 12:24 | 29.89631 | 31.67827 | 11663 ft | 299 kts | 135° |
| 2026-04-17 12:24 | 29.88456 | 31.69816 | 12248 ft | 302 kts | 135° |
| 2026-04-17 12:24 | 29.87267 | 31.71825 | 12789 ft | 305 kts | 135° |
| 2026-04-17 12:25 | 29.86063 | 31.73852 | 13333 ft | 308 kts | 135° |
| 2026-04-17 12:25 | 29.84845 | 31.75896 | 13838 ft | 312 kts | 135° |
| 2026-04-17 12:25 | 29.83609 | 31.77965 | 14297 ft | 316 kts | 135° |
| 2026-04-17 12:25 | 29.82357 | 31.80059 | 14744 ft | 320 kts | 135° |
| 2026-04-17 12:26 | 29.81086 | 31.82187 | 15244 ft | 324 kts | 135° |
| 2026-04-17 12:26 | 29.79799 | 31.84344 | 15712 ft | 329 kts | 135° |
| 2026-04-17 12:26 | 29.78649 | 31.86640 | 16161 ft | 343 kts | 125° |
| 2026-04-17 12:26 | 29.77788 | 31.89245 | 16651 ft | 354 kts | 117° |
| 2026-04-17 12:27 | 29.77068 | 31.91986 | 17076 ft | 361 kts | 114° |
| 2026-04-17 12:27 | 29.76428 | 31.94800 | 17560 ft | 366 kts | 112° |
| 2026-04-17 12:27 | 29.75821 | 31.97664 | 18036 ft | 370 kts | 112° |
| 2026-04-17 12:27 | 29.75234 | 32.00507 | 18726 ft | 363 kts | 112° |
| 2026-04-17 12:28 | 29.74655 | 32.03287 | 19273 ft | 362 kts | 112° |
| 2026-04-17 12:28 | 29.74042 | 32.06148 | 19750 ft | 364 kts | 112° |
| 2026-04-17 12:28 | 29.73430 | 32.08934 | 20186 ft | 366 kts | 112° |
| 2026-04-17 12:28 | 29.72793 | 32.11792 | 20633 ft | 369 kts | 113° |
| 2026-04-17 12:29 | 29.72150 | 32.14657 | 21079 ft | 372 kts | 112° |
| 2026-04-17 12:29 | 29.71499 | 32.17551 | 21500 ft | 375 kts | 112° |
| 2026-04-17 12:29 | 29.70843 | 32.20472 | 21919 ft | 379 kts | 112° |
| 2026-04-17 12:29 | 29.70184 | 32.23409 | 22346 ft | 381 kts | 112° |
| 2026-04-17 12:30 | 29.69518 | 32.26374 | 22780 ft | 384 kts | 112° |
| 2026-04-17 12:30 | 29.68847 | 32.29363 | 23217 ft | 387 kts | 112° |
| 2026-04-17 12:30 | 29.68185 | 32.32312 | 23561 ft | 389 kts | 112° |
| 2026-04-17 12:30 | 29.67504 | 32.35336 | 23902 ft | 392 kts | 112° |
| 2026-04-17 12:31 | 29.66819 | 32.38380 | 24261 ft | 394 kts | 111° |
| 2026-04-17 12:31 | 29.66127 | 32.41451 | 24606 ft | 397 kts | 111° |
| 2026-04-17 12:31 | 29.65433 | 32.44528 | 24948 ft | 399 kts | 111° |
| 2026-04-17 12:31 | 29.64733 | 32.47623 | 25300 ft | 401 kts | 111° |
| 2026-04-17 12:32 | 29.64030 | 32.50734 | 25647 ft | 404 kts | 111° |
| 2026-04-17 12:32 | 29.63320 | 32.53866 | 25992 ft | 406 kts | 111° |
| 2026-04-17 12:32 | 29.62606 | 32.57012 | 26339 ft | 409 kts | 111° |
| 2026-04-17 12:32 | 29.61885 | 32.60190 | 26705 ft | 411 kts | 111° |
| 2026-04-17 12:33 | 29.61158 | 32.63386 | 27081 ft | 414 kts | 111° |
| 2026-04-17 12:33 | 29.60478 | 32.66609 | 27442 ft | 420 kts | 106° |
| 2026-04-17 12:33 | 29.60108 | 32.69919 | 27820 ft | 427 kts | 97° |
| 2026-04-17 12:33 | 29.60022 | 32.73353 | 28224 ft | 431 kts | 94° |
| 2026-04-17 12:34 | 29.60020 | 32.76812 | 28615 ft | 434 kts | 93° |
| 2026-04-17 12:34 | 29.60058 | 32.80292 | 29042 ft | 437 kts | 92° |
| 2026-04-17 12:34 | 29.60112 | 32.83777 | 29542 ft | 436 kts | 92° |
| 2026-04-17 12:34 | 29.60166 | 32.87261 | 30017 ft | 436 kts | 92° |
| 2026-04-17 12:35 | 29.60214 | 32.90746 | 30438 ft | 437 kts | 92° |
| 2026-04-17 12:35 | 29.60255 | 32.94240 | 30844 ft | 437 kts | 92° |
| 2026-04-17 12:35 | 29.60290 | 32.97726 | 31251 ft | 437 kts | 92° |
| 2026-04-17 12:35 | 29.60321 | 33.01214 | 31658 ft | 437 kts | 92° |
| 2026-04-17 12:37 | 29.60501 | 33.25592 | 34190 ft | 437 kts | 92° |
| 2026-04-17 12:37 | 29.60524 | 33.29082 | 34478 ft | 437 kts | 91° |
| 2026-04-17 12:38 | 29.60545 | 33.32571 | 34756 ft | 438 kts | 91° |
| 2026-04-17 12:38 | 29.60566 | 33.36079 | 35013 ft | 438 kts | 91° |
| 2026-04-17 12:38 | 29.60587 | 33.39582 | 35257 ft | 439 kts | 91° |
| 2026-04-17 12:38 | 29.60605 | 33.43097 | 35487 ft | 440 kts | 91° |
| 2026-04-17 12:39 | 29.60623 | 33.46567 | 35715 ft | 441 kts | 91° |
| 2026-04-17 12:39 | 29.60640 | 33.50093 | 35932 ft | 442 kts | 91° |
| 2026-04-17 12:39 | 29.60657 | 33.53626 | 36133 ft | 443 kts | 91° |
| 2026-04-17 12:39 | 29.60672 | 33.57162 | 36349 ft | 444 kts | 91° |
| 2026-04-17 12:40 | 29.60687 | 33.60716 | 36551 ft | 445 kts | 91° |
| 2026-04-17 12:40 | 29.60700 | 33.64269 | 36741 ft | 445 kts | 91° |
| 2026-04-17 12:40 | 29.60713 | 33.67834 | 36934 ft | 446 kts | 91° |
| 2026-04-17 12:40 | 29.60725 | 33.71346 | 37126 ft | 447 kts | 91° |
| 2026-04-17 12:41 | 29.60736 | 33.74911 | 37303 ft | 447 kts | 91° |
| 2026-04-17 12:41 | 29.60745 | 33.78154 | 37462 ft | 448 kts | 91° |
| 2026-04-17 12:41 | 29.60754 | 33.81723 | 37623 ft | 448 kts | 91° |
| 2026-04-17 12:41 | 29.60763 | 33.85318 | 37771 ft | 450 kts | 91° |
| 2026-04-17 12:42 | 29.60763 | 33.88919 | 37898 ft | 451 kts | 91° |
| 2026-04-17 12:42 | 29.60756 | 33.92526 | 38030 ft | 452 kts | 91° |
| 2026-04-17 12:42 | 29.60746 | 33.96145 | 38160 ft | 454 kts | 91° |
| 2026-04-17 12:42 | 29.60737 | 33.99777 | 38277 ft | 455 kts | 91° |
| 2026-04-17 12:43 | 29.60727 | 34.03367 | 38398 ft | 456 kts | 91° |
| 2026-04-17 12:43 | 29.60718 | 34.07012 | 38525 ft | 457 kts | 91° |
| 2026-04-17 12:43 | 29.60708 | 34.10656 | 38651 ft | 457 kts | 91° |
| 2026-04-17 12:43 | 29.60698 | 34.14310 | 38774 ft | 457 kts | 91° |
| 2026-04-17 12:44 | 29.60688 | 34.17968 | 38892 ft | 458 kts | 91° |
| 2026-04-17 12:44 | 29.60676 | 34.21623 | 39013 ft | 458 kts | 91° |
| 2026-04-17 12:44 | 29.60664 | 34.25286 | 39129 ft | 458 kts | 91° |
| 2026-04-17 12:44 | 29.60664 | 34.28954 | 39241 ft | 459 kts | 90° |
| 2026-04-17 12:45 | 29.60671 | 34.32621 | 39347 ft | 460 kts | 90° |
| 2026-04-17 12:45 | 29.60689 | 34.39937 | 39551 ft | 462 kts | 90° |
| 2026-04-17 12:46 | 29.60700 | 34.47338 | 39693 ft | 465 kts | 90° |
| 2026-04-17 12:46 | 29.60134 | 34.54750 | 39770 ft | 467 kts | 106° |
| 2026-04-17 12:46 | 29.59199 | 34.58297 | 39793 ft | 464 kts | 117° |
| 2026-04-17 12:47 | 29.57802 | 34.61612 | 39839 ft | 458 kts | 128° |
| 2026-04-17 12:47 | 29.53877 | 34.67114 | 39919 ft | 442 kts | 148° |
| 2026-04-17 12:48 | 29.49343 | 34.71596 | 40037 ft | 448 kts | 146° |
| 2026-04-17 12:48 | 29.47181 | 34.74225 | 40075 ft | 459 kts | 136° |
| 2026-04-17 12:48 | 29.45335 | 34.77272 | 40120 ft | 471 kts | 125° |
| 2026-04-17 12:48 | 29.43930 | 34.80719 | 40139 ft | 482 kts | 114° |
| 2026-04-17 12:49 | 29.43055 | 34.84451 | 40189 ft | 488 kts | 103° |
| 2026-04-17 12:49 | 29.41955 | 34.92207 | 40232 ft | 497 kts | 97° |
| 2026-04-17 12:50 | 29.42184 | 35.00103 | 40251 ft | 504 kts | 76° |
| 2026-04-17 12:50 | 29.43854 | 35.07969 | 40311 ft | 510 kts | 72° |
| 2026-04-17 12:51 | 29.45759 | 35.15878 | 40377 ft | 519 kts | 71° |
| 2026-04-17 12:51 | 29.47690 | 35.23924 | 40432 ft | 527 kts | 72° |
| 2026-04-17 12:52 | 29.49602 | 35.32064 | 40519 ft | 536 kts | 72° |
| 2026-04-17 12:52 | 29.51535 | 35.40397 | 40584 ft | 546 kts | 72° |
| 2026-04-17 12:53 | 29.53497 | 35.48889 | 40639 ft | 555 kts | 72° |
| 2026-04-17 12:53 | 29.55519 | 35.57494 | 40685 ft | 562 kts | 72° |
| 2026-04-17 12:54 | 29.57597 | 35.66210 | 40725 ft | 568 kts | 72° |
| 2026-04-17 12:54 | 29.59653 | 35.74882 | 40774 ft | 565 kts | 72° |
| 2026-04-17 12:55 | 29.61690 | 35.83595 | 40777 ft | 565 kts | 73° |
| 2026-04-17 12:55 | 29.63225 | 35.92444 | 40781 ft | 565 kts | 78° |
| 2026-04-17 12:56 | 29.64517 | 36.01349 | 40782 ft | 564 kts | 78° |
| 2026-04-17 12:56 | 29.65874 | 36.10241 | 40779 ft | 564 kts | 78° |
| 2026-04-17 12:57 | 29.67285 | 36.19048 | 40780 ft | 564 kts | 77° |
| 2026-04-17 12:57 | 29.68720 | 36.27913 | 40788 ft | 564 kts | 77° |
| 2026-04-17 12:58 | 29.70146 | 36.36769 | 40783 ft | 564 kts | 77° |
| 2026-04-17 12:58 | 29.71578 | 36.45642 | 40791 ft | 563 kts | 77° |
| 2026-04-17 12:59 | 29.73006 | 36.54433 | 40805 ft | 563 kts | 77° |
| 2026-04-17 12:59 | 29.74423 | 36.63295 | 40795 ft | 563 kts | 79° |
| 2026-04-17 12:59 | 29.74739 | 36.67791 | 40808 ft | 564 kts | 90° |
| 2026-04-17 13:00 | 29.74404 | 36.72272 | 40813 ft | 562 kts | 101° |
| 2026-04-17 13:00 | 29.72855 | 36.81083 | 40811 ft | 561 kts | 104° |
| 2026-04-17 13:01 | 29.71073 | 36.89769 | 40822 ft | 561 kts | 105° |
| 2026-04-17 13:01 | 29.69271 | 36.98505 | 40829 ft | 562 kts | 104° |
| 2026-04-17 13:02 | 29.67501 | 37.07244 | 40827 ft | 561 kts | 104° |
| 2026-04-17 13:02 | 29.65744 | 37.15979 | 40838 ft | 561 kts | 104° |
| 2026-04-17 13:03 | 29.63993 | 37.24658 | 40842 ft | 561 kts | 104° |
| 2026-04-17 13:03 | 29.62225 | 37.33385 | 40847 ft | 561 kts | 104° |
| 2026-04-17 13:04 | 29.60450 | 37.42106 | 40846 ft | 560 kts | 104° |
| 2026-04-17 13:04 | 29.58671 | 37.50821 | 40846 ft | 560 kts | 104° |
| 2026-04-17 13:05 | 29.56897 | 37.59480 | 40849 ft | 560 kts | 104° |
| 2026-04-17 13:05 | 29.55107 | 37.68186 | 40851 ft | 560 kts | 104° |
| 2026-04-17 13:06 | 29.53310 | 37.76893 | 40853 ft | 560 kts | 104° |
| 2026-04-17 13:06 | 29.51508 | 37.85593 | 40851 ft | 560 kts | 104° |
| 2026-04-17 13:07 | 29.49716 | 37.94216 | 40852 ft | 559 kts | 105° |
| 2026-04-17 13:07 | 29.47929 | 38.02908 | 40857 ft | 560 kts | 103° |
| 2026-04-17 13:08 | 29.46376 | 38.11664 | 40858 ft | 560 kts | 102° |
| 2026-04-17 13:08 | 29.44887 | 38.20420 | 40860 ft | 560 kts | 102° |
| 2026-04-17 13:09 | 29.43369 | 38.29110 | 40865 ft | 560 kts | 102° |
| 2026-04-17 13:09 | 29.41804 | 38.37871 | 40871 ft | 560 kts | 102° |
| 2026-04-17 13:10 | 29.40229 | 38.46614 | 40875 ft | 560 kts | 102° |
| 2026-04-17 13:10 | 29.38652 | 38.55341 | 40877 ft | 559 kts | 102° |
| 2026-04-17 13:11 | 29.37071 | 38.64063 | 40885 ft | 559 kts | 102° |
| 2026-04-17 13:11 | 29.35761 | 38.71265 | 40891 ft | 559 kts | 102° |
| 2026-04-17 13:12 | 29.34181 | 38.79923 | 40895 ft | 559 kts | 102° |
| 2026-04-17 13:12 | 29.31778 | 38.93003 | 40906 ft | 559 kts | 103° |
| 2026-04-17 13:13 | 29.29996 | 39.01665 | 40912 ft | 559 kts | 105° |
| 2026-04-17 13:13 | 29.28144 | 39.10247 | 40919 ft | 559 kts | 105° |
| 2026-04-17 13:14 | 29.26296 | 39.18895 | 40926 ft | 559 kts | 104° |
| 2026-04-17 13:14 | 29.24470 | 39.27537 | 40931 ft | 559 kts | 104° |
| 2026-04-17 13:15 | 29.22641 | 39.36194 | 40933 ft | 559 kts | 104° |
| 2026-04-17 13:15 | 29.20809 | 39.44833 | 40938 ft | 559 kts | 104° |
| 2026-04-17 13:16 | 29.18982 | 39.53415 | 40943 ft | 559 kts | 104° |
| 2026-04-17 13:16 | 29.17139 | 39.62046 | 40948 ft | 559 kts | 104° |
| 2026-04-17 13:17 | 29.15288 | 39.70677 | 40955 ft | 559 kts | 104° |
| 2026-04-17 13:17 | 29.13433 | 39.79302 | 40960 ft | 558 kts | 104° |
| 2026-04-17 13:18 | 29.11571 | 39.87928 | 40964 ft | 559 kts | 104° |
| 2026-04-17 13:18 | 29.09844 | 39.96530 | 40962 ft | 559 kts | 101° |
| 2026-04-17 13:19 | 29.08529 | 40.05276 | 40968 ft | 559 kts | 99° |
| 2026-04-17 13:19 | 29.07252 | 40.14041 | 40970 ft | 559 kts | 99° |
| 2026-04-17 13:20 | 29.05900 | 40.22794 | 40973 ft | 559 kts | 100° |
| 2026-04-17 13:20 | 29.04506 | 40.31523 | 40979 ft | 558 kts | 100° |
| 2026-04-17 13:21 | 29.03108 | 40.40195 | 40980 ft | 558 kts | 101° |
| 2026-04-17 13:21 | 29.01699 | 40.48916 | 40984 ft | 558 kts | 101° |
| 2026-04-17 13:22 | 29.00286 | 40.57632 | 40988 ft | 558 kts | 101° |
| 2026-04-17 13:22 | 28.98871 | 40.66336 | 40989 ft | 558 kts | 101° |
| 2026-04-17 13:23 | 28.97453 | 40.75045 | 40992 ft | 558 kts | 101° |
| 2026-04-17 13:23 | 28.96035 | 40.83681 | 40984 ft | 557 kts | 101° |
| 2026-04-17 13:24 | 28.94599 | 40.92380 | 40987 ft | 557 kts | 101° |
| 2026-04-17 13:24 | 28.93159 | 41.01079 | 40987 ft | 557 kts | 101° |
| 2026-04-17 13:25 | 28.91716 | 41.09763 | 40983 ft | 557 kts | 101° |
| 2026-04-17 13:25 | 28.90279 | 41.18381 | 40984 ft | 557 kts | 101° |
| 2026-04-17 13:26 | 28.88824 | 41.27072 | 40979 ft | 557 kts | 101° |
| 2026-04-17 13:26 | 28.87368 | 41.35729 | 40977 ft | 556 kts | 101° |
| 2026-04-17 13:27 | 28.85906 | 41.44390 | 40976 ft | 556 kts | 101° |
| 2026-04-17 13:27 | 28.84435 | 41.53047 | 40972 ft | 556 kts | 101° |
| 2026-04-17 13:28 | 28.82972 | 41.61642 | 40969 ft | 555 kts | 101° |
| 2026-04-17 13:28 | 28.81497 | 41.70286 | 40972 ft | 555 kts | 101° |
| 2026-04-17 13:29 | 28.80016 | 41.78919 | 40971 ft | 555 kts | 101° |
| 2026-04-17 13:29 | 28.78528 | 41.87558 | 40972 ft | 555 kts | 101° |
| 2026-04-17 13:30 | 28.77046 | 41.96127 | 40969 ft | 555 kts | 101° |
| 2026-04-17 13:30 | 28.75548 | 42.04754 | 40964 ft | 554 kts | 101° |
| 2026-04-17 13:31 | 28.74048 | 42.13357 | 40968 ft | 554 kts | 101° |
| 2026-04-17 13:31 | 28.72540 | 42.21973 | 40965 ft | 554 kts | 101° |
| 2026-04-17 13:32 | 28.71029 | 42.30573 | 40966 ft | 554 kts | 101° |
| 2026-04-17 13:32 | 28.69523 | 42.39114 | 40962 ft | 554 kts | 101° |
| 2026-04-17 13:33 | 28.68002 | 42.47705 | 40963 ft | 553 kts | 101° |
| 2026-04-17 13:33 | 28.66476 | 42.56288 | 40963 ft | 553 kts | 101° |
| 2026-04-17 13:34 | 28.64910 | 42.64873 | 40958 ft | 553 kts | 105° |
| 2026-04-17 13:34 | 28.62100 | 42.72908 | 40961 ft | 550 kts | 118° |
| 2026-04-17 13:35 | 28.58575 | 42.80617 | 40957 ft | 549 kts | 121° |
| 2026-04-17 13:35 | 28.54938 | 42.88269 | 40959 ft | 549 kts | 121° |
| 2026-04-17 13:36 | 28.51313 | 42.95917 | 40961 ft | 550 kts | 120° |
| 2026-04-17 13:36 | 28.47701 | 43.03581 | 40966 ft | 550 kts | 120° |
| 2026-04-17 13:37 | 28.44118 | 43.11192 | 40966 ft | 550 kts | 120° |
| 2026-04-17 13:37 | 28.40510 | 43.18843 | 40967 ft | 550 kts | 120° |
| 2026-04-17 13:38 | 28.36894 | 43.26497 | 40964 ft | 550 kts | 120° |
| 2026-04-17 13:38 | 28.33276 | 43.34137 | 40964 ft | 550 kts | 121° |
| 2026-04-17 13:39 | 28.29674 | 43.41729 | 40957 ft | 550 kts | 121° |
| 2026-04-17 13:39 | 28.26045 | 43.49363 | 40957 ft | 550 kts | 121° |
| 2026-04-17 13:40 | 28.22414 | 43.56989 | 40954 ft | 550 kts | 121° |
| 2026-04-17 13:40 | 28.18780 | 43.64608 | 40968 ft | 550 kts | 121° |
| 2026-04-17 13:41 | 28.15135 | 43.72162 | 40964 ft | 549 kts | 121° |
| 2026-04-17 13:41 | 28.11445 | 43.79754 | 40967 ft | 549 kts | 121° |
| 2026-04-17 13:42 | 28.07762 | 43.87332 | 40961 ft | 550 kts | 121° |
| 2026-04-17 13:42 | 28.04077 | 43.94912 | 40962 ft | 550 kts | 121° |
| 2026-04-17 13:43 | 28.00386 | 44.02495 | 40962 ft | 550 kts | 121° |
| 2026-04-17 13:43 | 27.96685 | 44.10085 | 40958 ft | 551 kts | 121° |
| 2026-04-17 13:44 | 27.93010 | 44.17629 | 40952 ft | 551 kts | 121° |
| 2026-04-17 13:44 | 27.89357 | 44.25251 | 40964 ft | 552 kts | 121° |
| 2026-04-17 13:45 | 27.85709 | 44.32877 | 40961 ft | 552 kts | 121° |
| 2026-04-17 13:45 | 27.82052 | 44.40492 | 40966 ft | 552 kts | 121° |
| 2026-04-17 13:46 | 27.78410 | 44.48051 | 40968 ft | 552 kts | 121° |
| 2026-04-17 13:46 | 27.74726 | 44.55678 | 40965 ft | 552 kts | 121° |
| 2026-04-17 13:47 | 27.71043 | 44.63289 | 40967 ft | 553 kts | 121° |
| 2026-04-17 13:47 | 27.67355 | 44.70899 | 40963 ft | 553 kts | 121° |
| 2026-04-17 13:48 | 27.64311 | 44.78874 | 40964 ft | 556 kts | 104° |
| 2026-04-17 13:48 | 27.62567 | 44.87306 | 40973 ft | 556 kts | 101° |
| 2026-04-17 13:49 | 27.61035 | 44.95852 | 40968 ft | 557 kts | 101° |
| 2026-04-17 13:49 | 27.59507 | 45.04411 | 40969 ft | 557 kts | 101° |
| 2026-04-17 13:50 | 27.57944 | 45.12950 | 40972 ft | 556 kts | 101° |
| 2026-04-17 13:50 | 27.56372 | 45.21427 | 40968 ft | 556 kts | 101° |
| 2026-04-17 13:51 | 27.54786 | 45.29948 | 40966 ft | 555 kts | 101° |
| 2026-04-17 13:51 | 27.53188 | 45.38459 | 40963 ft | 555 kts | 101° |
| 2026-04-17 13:52 | 27.51588 | 45.46951 | 40958 ft | 555 kts | 101° |
| 2026-04-17 13:52 | 27.49984 | 45.55452 | 40959 ft | 554 kts | 101° |
| 2026-04-17 13:53 | 27.48389 | 45.63879 | 40956 ft | 554 kts | 101° |
| 2026-04-17 13:53 | 27.46779 | 45.72359 | 40958 ft | 553 kts | 101° |
| 2026-04-17 13:54 | 27.44358 | 45.85046 | 40954 ft | 552 kts | 101° |
| 2026-04-17 13:55 | 27.41929 | 45.97718 | 40951 ft | 551 kts | 101° |
| 2026-04-17 13:56 | 27.38690 | 46.14507 | 40945 ft | 551 kts | 102° |
| 2026-04-17 13:56 | 27.37059 | 46.22920 | 40943 ft | 550 kts | 102° |
| 2026-04-17 13:57 | 27.35424 | 46.31328 | 40949 ft | 550 kts | 102° |
| 2026-04-17 13:58 | 27.33168 | 46.43959 | 40946 ft | 549 kts | 100° |
| 2026-04-17 13:58 | 27.31013 | 46.56529 | 40935 ft | 548 kts | 100° |
| 2026-04-17 13:59 | 27.28797 | 46.69133 | 40937 ft | 548 kts | 101° |
| 2026-04-17 14:00 | 27.27307 | 46.77529 | 40939 ft | 547 kts | 101° |
| 2026-04-17 14:00 | 27.25824 | 46.85865 | 40937 ft | 547 kts | 101° |
| 2026-04-17 14:01 | 27.24327 | 46.94245 | 40937 ft | 547 kts | 101° |
| 2026-04-17 14:01 | 27.22827 | 47.02623 | 40938 ft | 547 kts | 101° |
| 2026-04-17 14:02 | 27.21320 | 47.11004 | 40935 ft | 547 kts | 101° |
| 2026-04-17 14:02 | 27.19812 | 47.19366 | 40932 ft | 546 kts | 101° |
| 2026-04-17 14:03 | 27.18307 | 47.27676 | 40933 ft | 546 kts | 101° |
| 2026-04-17 14:03 | 27.16790 | 47.36024 | 40933 ft | 546 kts | 101° |
| 2026-04-17 14:04 | 27.15267 | 47.44374 | 40930 ft | 545 kts | 101° |
| 2026-04-17 14:04 | 27.13743 | 47.52704 | 40930 ft | 545 kts | 101° |
| 2026-04-17 14:05 | 27.12213 | 47.61042 | 40861 ft | 544 kts | 101° |
| 2026-04-17 14:05 | 27.11443 | 47.65191 | 40653 ft | 544 kts | 101° |
| 2026-04-17 14:05 | 27.10682 | 47.69284 | 40403 ft | 543 kts | 101° |
| 2026-04-17 14:05 | 27.09908 | 47.73436 | 40168 ft | 542 kts | 101° |
| 2026-04-17 14:06 | 27.09136 | 47.77575 | 39826 ft | 540 kts | 101° |
| 2026-04-17 14:06 | 27.08369 | 47.81688 | 39257 ft | 539 kts | 101° |
| 2026-04-17 14:06 | 27.07600 | 47.85805 | 38631 ft | 540 kts | 102° |
| 2026-04-17 14:06 | 27.06831 | 47.89923 | 37877 ft | 540 kts | 102° |
| 2026-04-17 14:07 | 27.06058 | 47.94046 | 37177 ft | 538 kts | 102° |
| 2026-04-17 14:07 | 27.05288 | 47.98143 | 36501 ft | 537 kts | 102° |
| 2026-04-17 14:07 | 27.04451 | 48.02227 | 35807 ft | 536 kts | 104° |
| 2026-04-17 14:07 | 27.03557 | 48.06226 | 35111 ft | 536 kts | 105° |
| 2026-04-17 14:08 | 27.02622 | 48.10279 | 34309 ft | 538 kts | 105° |
| 2026-04-17 14:08 | 27.01677 | 48.14360 | 33422 ft | 541 kts | 105° |
| 2026-04-17 14:08 | 27.00741 | 48.18439 | 32548 ft | 542 kts | 105° |
| 2026-04-17 14:08 | 26.99807 | 48.22548 | 31657 ft | 543 kts | 105° |
| 2026-04-17 14:09 | 26.98883 | 48.26653 | 30842 ft | 542 kts | 105° |
| 2026-04-17 14:09 | 26.97970 | 48.30725 | 30260 ft | 536 kts | 105° |
| 2026-04-17 14:09 | 26.97067 | 48.34760 | 29618 ft | 531 kts | 105° |
| 2026-04-17 14:09 | 26.96181 | 48.38709 | 29000 ft | 526 kts | 105° |
| 2026-04-17 14:10 | 26.95295 | 48.42653 | 28399 ft | 520 kts | 105° |
| 2026-04-17 14:10 | 26.94415 | 48.46565 | 27801 ft | 514 kts | 105° |
| 2026-04-17 14:10 | 26.93544 | 48.50429 | 27222 ft | 509 kts | 105° |
| 2026-04-17 14:10 | 26.92681 | 48.54250 | 26629 ft | 504 kts | 104° |
| 2026-04-17 14:11 | 26.91826 | 48.58032 | 26060 ft | 499 kts | 104° |
| 2026-04-17 14:11 | 26.90978 | 48.61779 | 25485 ft | 494 kts | 104° |
| 2026-04-17 14:11 | 26.90134 | 48.65500 | 24906 ft | 489 kts | 104° |
| 2026-04-17 14:11 | 26.89300 | 48.69174 | 24335 ft | 485 kts | 104° |
| 2026-04-17 14:12 | 26.88443 | 48.72812 | 23765 ft | 480 kts | 107° |
| 2026-04-17 14:12 | 26.87175 | 48.76190 | 23166 ft | 475 kts | 117° |
| 2026-04-17 14:12 | 26.85633 | 48.79436 | 22564 ft | 469 kts | 119° |
| 2026-04-17 14:13 | 26.82519 | 48.85748 | 21423 ft | 457 kts | 120° |
| 2026-04-17 14:13 | 26.80980 | 48.88844 | 20855 ft | 452 kts | 120° |
| 2026-04-17 14:13 | 26.79459 | 48.91898 | 20287 ft | 447 kts | 120° |
| 2026-04-17 14:13 | 26.77952 | 48.94917 | 19725 ft | 442 kts | 120° |
| 2026-04-17 14:14 | 26.76459 | 48.97907 | 19156 ft | 438 kts | 120° |
| 2026-04-17 14:14 | 26.74974 | 49.00875 | 18587 ft | 435 kts | 120° |
| 2026-04-17 14:14 | 26.73524 | 49.03773 | 18008 ft | 431 kts | 120° |
| 2026-04-17 14:14 | 26.72066 | 49.06684 | 17402 ft | 427 kts | 120° |
| 2026-04-17 14:15 | 26.70623 | 49.09565 | 16831 ft | 422 kts | 120° |
| 2026-04-17 14:15 | 26.69184 | 49.12434 | 16039 ft | 426 kts | 120° |
| 2026-04-17 14:15 | 26.67730 | 49.15333 | 15186 ft | 429 kts | 120° |
| 2026-04-17 14:15 | 26.66266 | 49.18247 | 14361 ft | 431 kts | 120° |
| 2026-04-17 14:16 | 26.64802 | 49.21160 | 13665 ft | 429 kts | 120° |
| 2026-04-17 14:16 | 26.63374 | 49.24001 | 13000 ft | 412 kts | 120° |
| 2026-04-17 14:16 | 26.61995 | 49.26744 | 12369 ft | 409 kts | 120° |
| 2026-04-17 14:16 | 26.60607 | 49.29499 | 11761 ft | 405 kts | 120° |
| 2026-04-17 14:17 | 26.59236 | 49.32222 | 11157 ft | 400 kts | 120° |
| 2026-04-17 14:17 | 26.57898 | 49.34878 | 10561 ft | 379 kts | 121° |
| 2026-04-17 14:17 | 26.56647 | 49.37363 | 10047 ft | 353 kts | 121° |
| 2026-04-17 14:17 | 26.55501 | 49.39638 | 9985 ft | 322 kts | 121° |
| 2026-04-17 14:18 | 26.54412 | 49.41794 | 9853 ft | 316 kts | 121° |
| 2026-04-17 14:18 | 26.53339 | 49.43914 | 9392 ft | 313 kts | 121° |
| 2026-04-17 14:18 | 26.52272 | 49.46020 | 8888 ft | 310 kts | 121° |
| 2026-04-17 14:18 | 26.51218 | 49.48100 | 8397 ft | 307 kts | 121° |
| 2026-04-17 14:19 | 26.50101 | 49.50100 | 7902 ft | 306 kts | 129° |
| 2026-04-17 14:19 | 26.48469 | 49.51594 | 7479 ft | 300 kts | 158° |
| 2026-04-17 14:19 | 26.46538 | 49.52233 | 7228 ft | 289 kts | 169° |
| 2026-04-17 14:19 | 26.44588 | 49.52738 | 6850 ft | 287 kts | 170° |
| 2026-04-17 14:20 | 26.42649 | 49.53251 | 6477 ft | 286 kts | 166° |
| 2026-04-17 14:20 | 26.40766 | 49.53948 | 6100 ft | 285 kts | 160° |
| 2026-04-17 14:20 | 26.38964 | 49.54848 | 5735 ft | 283 kts | 154° |
| 2026-04-17 14:20 | 26.37264 | 49.55919 | 5372 ft | 280 kts | 149° |
| 2026-04-17 14:21 | 26.35656 | 49.57140 | 5016 ft | 278 kts | 144° |
| 2026-04-17 14:21 | 26.34165 | 49.58490 | 4672 ft | 275 kts | 139° |
| 2026-04-17 14:21 | 26.32813 | 49.59945 | 4294 ft | 273 kts | 134° |
| 2026-04-17 14:21 | 26.31569 | 49.61531 | 3933 ft | 271 kts | 129° |
| 2026-04-17 14:22 | 26.30451 | 49.63223 | 3853 ft | 272 kts | 124° |
| 2026-04-17 14:22 | 26.29449 | 49.65010 | 3533 ft | 270 kts | 120° |
| 2026-04-17 14:22 | 26.28591 | 49.66869 | 3169 ft | 269 kts | 115° |
| 2026-04-17 14:22 | 26.27877 | 49.68795 | 3041 ft | 269 kts | 110° |
| 2026-04-17 14:23 | 26.27300 | 49.70772 | 3030 ft | 270 kts | 106° |
| 2026-04-17 14:23 | 26.26862 | 49.72809 | 3028 ft | 267 kts | 101° |
| 2026-04-17 14:23 | 26.26584 | 49.74783 | 3021 ft | 250 kts | 96° |
| 2026-04-17 14:23 | 26.26450 | 49.76647 | 3016 ft | 234 kts | 92° |
| 2026-04-17 14:24 | 26.26432 | 49.78419 | 2910 ft | 223 kts | 89° |
| 2026-04-17 14:24 | 26.26613 | 49.80071 | 2774 ft | 215 kts | 73° |
| 2026-04-17 14:24 | 26.27305 | 49.81481 | 2667 ft | 202 kts | 49° |
| 2026-04-17 14:24 | 26.28435 | 49.82339 | 2446 ft | 195 kts | 20° |
| 2026-04-17 14:25 | 26.29700 | 49.82838 | 2209 ft | 191 kts | 18° |
| 2026-04-17 14:25 | 26.30967 | 49.83238 | 2052 ft | 189 kts | 8° |
| 2026-04-17 14:25 | 26.32280 | 49.83232 | 2042 ft | 190 kts | 350° |
| 2026-04-17 14:25 | 26.33553 | 49.82858 | 2035 ft | 189 kts | 344° |
| 2026-04-17 14:26 | 26.34816 | 49.82466 | 2037 ft | 185 kts | 345° |
| 2026-04-17 14:26 | 26.36013 | 49.82099 | 1929 ft | 172 kts | 346° |
| 2026-04-17 14:26 | 26.37131 | 49.81761 | 1708 ft | 161 kts | 346° |
| 2026-04-17 14:26 | 26.38151 | 49.81448 | 1513 ft | 149 kts | 346° |
| 2026-04-17 14:27 | 26.39129 | 49.81145 | 1329 ft | 142 kts | 347° |
| 2026-04-17 14:27 | 26.40068 | 49.80855 | 1133 ft | 139 kts | 347° |
| 2026-04-17 14:27 | 26.40989 | 49.80569 | 976 ft | 134 kts | 349° |
| 2026-04-17 14:27 | 26.41858 | 49.80302 | 831 ft | 134 kts | 347° |
| 2026-04-17 14:28 | 26.42796 | 49.80009 | 679 ft | 138 kts | 348° |
| 2026-04-17 14:28 | 26.43771 | 49.79689 | 544 ft | 153 kts | 348° |
| 2026-04-17 14:28 | 26.44804 | 49.79383 | 264 ft | 156 kts | 350° |
| 2026-04-17 14:28 | 26.45825 | 49.79066 | 95 ft | 147 kts | 348° |
| 2026-04-17 14:29 | 26.46665 | 49.78815 | 93 ft | 103 kts | 343° |
| 2026-04-17 14:29 | 26.47207 | 49.78646 | 97 ft | 59 kts | 345° |
| 2026-04-17 14:29 | 26.47496 | 49.78561 | 96 ft | 37 kts | 349° |
| 2026-04-17 14:29 | 26.47741 | 49.78589 | 95 ft | 35 kts | 10° |
| 2026-04-17 14:30 | 26.47866 | 49.78617 | 93 ft | 10 kts | 12° |
| 2026-04-17 14:30 | 26.47939 | 49.78643 | 95 ft | 12 kts | 28° |
| 2026-04-17 14:30 | 26.47964 | 49.78717 | 94 ft | 11 kts | 116° |
| 2026-04-17 14:30 | 26.47911 | 49.78754 | 93 ft | 0 kts | 163° |
| 2026-04-17 14:32 | 26.47908 | 49.78756 | 93 ft | 2 kts | 163° |
| 2026-04-17 14:32 | 26.47867 | 49.78769 | 95 ft | 10 kts | 163° |
| 2026-04-17 14:32 | 26.47811 | 49.78787 | 94 ft | 15 kts | 164° |
| 2026-04-17 14:32 | 26.47657 | 49.78835 | 96 ft | 19 kts | 164° |
| 2026-04-17 14:33 | 26.47519 | 49.78878 | 92 ft | 21 kts | 158° |
| 2026-04-17 14:33 | 26.47488 | 49.78957 | 95 ft | 11 kts | 85° |
| 2026-04-17 14:33 | 26.47500 | 49.79017 | 93 ft | 13 kts | 77° |
| 2026-04-17 14:33 | 26.47475 | 49.79105 | 93 ft | 13 kts | 145° |
| 2026-04-17 14:34 | 26.47382 | 49.79144 | 93 ft | 16 kts | 163° |
| 2026-04-17 14:34 | 26.47267 | 49.79196 | 93 ft | 20 kts | 153° |
| 2026-04-17 14:34 | 26.47140 | 49.79264 | 94 ft | 8 kts | 154° |
| 2026-04-17 14:34 | 26.47128 | 49.79307 | 95 ft | 5 kts | 79° |
| 2026-04-17 14:35 | 26.47139 | 49.79337 | 94 ft | 7 kts | 65° |
| 2026-04-17 14:35 | 26.47142 | 49.79343 | 93 ft | 0 kts | 65° |